<?xml version="1.0" encoding="UTF-8" standalone="no" ?>
<gpx xmlns="http://www.topografix.com/GPX/1/1" xmlns:xsi="http://www.w3.org/2001/XMLSchema-instance" xsi:schemaLocation="http://www.topografix.com/GPX/1/1 http://www.topografix.com/GPX/1/1/gpx.xsd" version="1.1" creator="VisuGPX - https://www.visugpx.com">
  <metadata>
    <name>Rando Festival Outdoor  Boucle 3 - Besançon  Territoire de trail</name>
    <desc><![CDATA[Cet itinéraire emprunte le sentier de halage du Doubs depuis le site de l?ancienne usine de filature, la Rhodia. Il passe sous le tunnel fluvial de la Citadelle, puis rejoint le chemin de la Petite Creuse pour monter le chemin de la Jourande et aller en direction de Beure. Du quartier de Maillot, en descendant, vue sur la Cascade du Bout du Monde, descendre dans « le Bas du » pour rejoindre les bords du Doubs et revenir par le chemin de halage jusqu?au pont de Velotte, le traverser pour retrouver le chemin de Mazagran et sa passerelle.]]></desc>
  </metadata>
  <trk>
    <name><![CDATA[Rando Festival Outdoor  Boucle 3 - Besançon  Territoire de trail]]></name>
    <trkseg>
      <trkpt lat="47.22769" lon="6.04273">
        <ele>246</ele>
        <time>2000-01-01T02:11:38.000Z</time>
      </trkpt>
      <trkpt lat="47.22746" lon="6.04236">
        <ele>246</ele>
        <time>2000-01-01T02:11:48.000Z</time>
      </trkpt>
      <trkpt lat="47.22726" lon="6.04198">
        <ele>241</ele>
        <time>2000-01-01T02:11:58.000Z</time>
      </trkpt>
      <trkpt lat="47.22739" lon="6.04164">
        <ele>241</ele>
        <time>2000-01-01T02:12:08.000Z</time>
      </trkpt>
      <trkpt lat="47.22752" lon="6.04125">
        <ele>241</ele>
        <time>2000-01-01T02:12:18.000Z</time>
      </trkpt>
      <trkpt lat="47.22771" lon="6.04089">
        <ele>241</ele>
        <time>2000-01-01T02:12:28.000Z</time>
      </trkpt>
      <trkpt lat="47.22788" lon="6.04059">
        <ele>241</ele>
        <time>2000-01-01T02:12:38.000Z</time>
      </trkpt>
      <trkpt lat="47.22806" lon="6.04038">
        <ele>241</ele>
        <time>2000-01-01T02:12:48.000Z</time>
      </trkpt>
      <trkpt lat="47.22814" lon="6.04021">
        <ele>247.2</ele>
        <time>2000-01-01T02:12:58.000Z</time>
      </trkpt>
      <trkpt lat="47.22866" lon="6.03965">
        <ele>241</ele>
        <time>2000-01-01T02:13:08.000Z</time>
      </trkpt>
      <trkpt lat="47.22908" lon="6.03949">
        <ele>242</ele>
        <time>2000-01-01T02:13:18.000Z</time>
      </trkpt>
      <trkpt lat="47.22932" lon="6.03937">
        <ele>245</ele>
        <time>2000-01-01T02:13:28.000Z</time>
      </trkpt>
      <trkpt lat="47.22956" lon="6.03921">
        <ele>244</ele>
        <time>2000-01-01T02:13:38.000Z</time>
      </trkpt>
      <trkpt lat="47.22979" lon="6.03895">
        <ele>244</ele>
        <time>2000-01-01T02:13:48.000Z</time>
      </trkpt>
      <trkpt lat="47.23" lon="6.03879">
        <ele>245</ele>
        <time>2000-01-01T02:13:58.000Z</time>
      </trkpt>
      <trkpt lat="47.23024" lon="6.03859">
        <ele>245</ele>
        <time>2000-01-01T02:14:08.000Z</time>
      </trkpt>
      <trkpt lat="47.23041" lon="6.03848">
        <ele>245</ele>
        <time>2000-01-01T02:14:18.000Z</time>
      </trkpt>
      <trkpt lat="47.23057" lon="6.03836">
        <ele>244.7</ele>
        <time>2000-01-01T02:14:28.000Z</time>
      </trkpt>
      <trkpt lat="47.23067" lon="6.03825">
        <ele>245</ele>
        <time>2000-01-01T02:14:38.000Z</time>
      </trkpt>
      <trkpt lat="47.23082" lon="6.03817">
        <ele>244</ele>
        <time>2000-01-01T02:14:48.000Z</time>
      </trkpt>
      <trkpt lat="47.23098" lon="6.0381">
        <ele>245</ele>
        <time>2000-01-01T02:14:58.000Z</time>
      </trkpt>
      <trkpt lat="47.23121" lon="6.03795">
        <ele>245</ele>
        <time>2000-01-01T02:15:08.000Z</time>
      </trkpt>
      <trkpt lat="47.23168" lon="6.03778">
        <ele>246</ele>
        <time>2000-01-01T02:15:18.000Z</time>
      </trkpt>
      <trkpt lat="47.23184" lon="6.03775">
        <ele>243.5</ele>
        <time>2000-01-01T02:15:28.000Z</time>
      </trkpt>
      <trkpt lat="47.23199" lon="6.03769">
        <ele>246</ele>
        <time>2000-01-01T02:15:38.000Z</time>
      </trkpt>
      <trkpt lat="47.23237" lon="6.03752">
        <ele>246</ele>
        <time>2000-01-01T02:15:48.000Z</time>
      </trkpt>
      <trkpt lat="47.23256" lon="6.03746">
        <ele>246</ele>
        <time>2000-01-01T02:15:58.000Z</time>
      </trkpt>
      <trkpt lat="47.23273" lon="6.03736">
        <ele>246</ele>
        <time>2000-01-01T02:16:08.000Z</time>
      </trkpt>
      <trkpt lat="47.23313" lon="6.03723">
        <ele>246</ele>
        <time>2000-01-01T02:16:18.000Z</time>
      </trkpt>
      <trkpt lat="47.23341" lon="6.03707">
        <ele>246</ele>
        <time>2000-01-01T02:16:28.000Z</time>
      </trkpt>
      <trkpt lat="47.23359" lon="6.0368">
        <ele>246</ele>
        <time>2000-01-01T02:16:38.000Z</time>
      </trkpt>
      <trkpt lat="47.23378" lon="6.03656">
        <ele>242</ele>
        <time>2000-01-01T02:16:48.000Z</time>
      </trkpt>
      <trkpt lat="47.23395" lon="6.03628">
        <ele>241</ele>
        <time>2000-01-01T02:16:58.000Z</time>
      </trkpt>
      <trkpt lat="47.23412" lon="6.03584">
        <ele>241</ele>
        <time>2000-01-01T02:17:08.000Z</time>
      </trkpt>
      <trkpt lat="47.23428" lon="6.03546">
        <ele>241</ele>
        <time>2000-01-01T02:17:18.000Z</time>
      </trkpt>
      <trkpt lat="47.23453" lon="6.03496">
        <ele>245</ele>
        <time>2000-01-01T02:17:28.000Z</time>
      </trkpt>
      <trkpt lat="47.23453" lon="6.03481">
        <ele>243.8</ele>
        <time>2000-01-01T02:17:38.000Z</time>
      </trkpt>
      <trkpt lat="47.23417" lon="6.03495">
        <ele>246</ele>
        <time>2000-01-01T02:17:48.000Z</time>
      </trkpt>
      <trkpt lat="47.23371" lon="6.03526">
        <ele>246</ele>
        <time>2000-01-01T02:17:58.000Z</time>
      </trkpt>
      <trkpt lat="47.23333" lon="6.03555">
        <ele>246</ele>
        <time>2000-01-01T02:18:08.000Z</time>
      </trkpt>
      <trkpt lat="47.23299" lon="6.03562">
        <ele>246</ele>
        <time>2000-01-01T02:18:18.000Z</time>
      </trkpt>
      <trkpt lat="47.23266" lon="6.03578">
        <ele>246</ele>
        <time>2000-01-01T02:18:28.000Z</time>
      </trkpt>
      <trkpt lat="47.23221" lon="6.03589">
        <ele>247</ele>
        <time>2000-01-01T02:18:38.000Z</time>
      </trkpt>
      <trkpt lat="47.23153" lon="6.03574">
        <ele>246</ele>
        <time>2000-01-01T02:18:48.000Z</time>
      </trkpt>
      <trkpt lat="47.23142" lon="6.0361">
        <ele>246</ele>
        <time>2000-01-01T02:18:58.000Z</time>
      </trkpt>
      <trkpt lat="47.23139" lon="6.03574">
        <ele>246</ele>
        <time>2000-01-01T02:19:08.000Z</time>
      </trkpt>
      <trkpt lat="47.23133" lon="6.0354">
        <ele>246</ele>
        <time>2000-01-01T02:19:18.000Z</time>
      </trkpt>
      <trkpt lat="47.23116" lon="6.03493">
        <ele>246</ele>
        <time>2000-01-01T02:19:28.000Z</time>
      </trkpt>
      <trkpt lat="47.23103" lon="6.03447">
        <ele>246</ele>
        <time>2000-01-01T02:19:38.000Z</time>
      </trkpt>
      <trkpt lat="47.23091" lon="6.03382">
        <ele>246</ele>
        <time>2000-01-01T02:19:48.000Z</time>
      </trkpt>
      <trkpt lat="47.23068" lon="6.03338">
        <ele>246</ele>
        <time>2000-01-01T02:19:58.000Z</time>
      </trkpt>
      <trkpt lat="47.23064" lon="6.03273">
        <ele>246</ele>
        <time>2000-01-01T02:20:08.000Z</time>
      </trkpt>
      <trkpt lat="47.23054" lon="6.03282">
        <ele>344.5</ele>
        <time>2000-01-01T02:20:18.000Z</time>
      </trkpt>
      <trkpt lat="47.22999" lon="6.03096">
        <ele>246</ele>
        <time>2000-01-01T02:20:28.000Z</time>
      </trkpt>
      <trkpt lat="47.22984" lon="6.03061">
        <ele>243</ele>
        <time>2000-01-01T02:20:38.000Z</time>
      </trkpt>
      <trkpt lat="47.22965" lon="6.03038">
        <ele>239</ele>
        <time>2000-01-01T02:20:48.000Z</time>
      </trkpt>
      <trkpt lat="47.2294" lon="6.03039">
        <ele>239</ele>
        <time>2000-01-01T02:20:58.000Z</time>
      </trkpt>
      <trkpt lat="47.22905" lon="6.03046">
        <ele>238</ele>
        <time>2000-01-01T02:21:08.000Z</time>
      </trkpt>
      <trkpt lat="47.22877" lon="6.0307">
        <ele>237</ele>
        <time>2000-01-01T02:21:18.000Z</time>
      </trkpt>
      <trkpt lat="47.2285" lon="6.03109">
        <ele>237</ele>
        <time>2000-01-01T02:21:28.000Z</time>
      </trkpt>
      <trkpt lat="47.22813" lon="6.03177">
        <ele>238</ele>
        <time>2000-01-01T02:21:38.000Z</time>
      </trkpt>
      <trkpt lat="47.22776" lon="6.03215">
        <ele>237</ele>
        <time>2000-01-01T02:21:48.000Z</time>
      </trkpt>
      <trkpt lat="47.22736" lon="6.03227">
        <ele>237</ele>
        <time>2000-01-01T02:21:58.000Z</time>
      </trkpt>
      <trkpt lat="47.22684" lon="6.03249">
        <ele>238</ele>
        <time>2000-01-01T02:22:08.000Z</time>
      </trkpt>
      <trkpt lat="47.22604" lon="6.03266">
        <ele>239</ele>
        <time>2000-01-01T02:22:18.000Z</time>
      </trkpt>
      <trkpt lat="47.22552" lon="6.03231">
        <ele>240</ele>
        <time>2000-01-01T02:22:28.000Z</time>
      </trkpt>
      <trkpt lat="47.22521" lon="6.03191">
        <ele>240</ele>
        <time>2000-01-01T02:22:38.000Z</time>
      </trkpt>
      <trkpt lat="47.22497" lon="6.03189">
        <ele>240</ele>
        <time>2000-01-01T02:22:48.000Z</time>
      </trkpt>
      <trkpt lat="47.22486" lon="6.03197">
        <ele>248.5</ele>
        <time>2000-01-01T02:22:58.000Z</time>
      </trkpt>
      <trkpt lat="47.22519" lon="6.03233">
        <ele>246</ele>
        <time>2000-01-01T02:23:08.000Z</time>
      </trkpt>
      <trkpt lat="47.22527" lon="6.03272">
        <ele>252</ele>
        <time>2000-01-01T02:23:18.000Z</time>
      </trkpt>
      <trkpt lat="47.2254" lon="6.03311">
        <ele>258</ele>
        <time>2000-01-01T02:23:28.000Z</time>
      </trkpt>
      <trkpt lat="47.22549" lon="6.03354">
        <ele>265</ele>
        <time>2000-01-01T02:23:38.000Z</time>
      </trkpt>
      <trkpt lat="47.22551" lon="6.03393">
        <ele>273</ele>
        <time>2000-01-01T02:23:48.000Z</time>
      </trkpt>
      <trkpt lat="47.22567" lon="6.03406">
        <ele>288.5</ele>
        <time>2000-01-01T02:23:58.000Z</time>
      </trkpt>
      <trkpt lat="47.22568" lon="6.03428">
        <ele>281</ele>
        <time>2000-01-01T02:24:08.000Z</time>
      </trkpt>
      <trkpt lat="47.22567" lon="6.03444">
        <ele>297.8</ele>
        <time>2000-01-01T02:24:18.000Z</time>
      </trkpt>
      <trkpt lat="47.22581" lon="6.03471">
        <ele>293</ele>
        <time>2000-01-01T02:24:28.000Z</time>
      </trkpt>
      <trkpt lat="47.22581" lon="6.03502">
        <ele>305</ele>
        <time>2000-01-01T02:24:38.000Z</time>
      </trkpt>
      <trkpt lat="47.22604" lon="6.03517">
        <ele>307</ele>
        <time>2000-01-01T02:24:48.000Z</time>
      </trkpt>
      <trkpt lat="47.22633" lon="6.03532">
        <ele>309</ele>
        <time>2000-01-01T02:24:58.000Z</time>
      </trkpt>
      <trkpt lat="47.22661" lon="6.03556">
        <ele>312</ele>
        <time>2000-01-01T02:25:08.000Z</time>
      </trkpt>
      <trkpt lat="47.22688" lon="6.03611">
        <ele>314</ele>
        <time>2000-01-01T02:25:18.000Z</time>
      </trkpt>
      <trkpt lat="47.22699" lon="6.03631">
        <ele>328.9</ele>
        <time>2000-01-01T02:25:28.000Z</time>
      </trkpt>
      <trkpt lat="47.22688" lon="6.03635">
        <ele>315</ele>
        <time>2000-01-01T02:25:38.000Z</time>
      </trkpt>
      <trkpt lat="47.22656" lon="6.03597">
        <ele>319</ele>
        <time>2000-01-01T02:25:48.000Z</time>
      </trkpt>
      <trkpt lat="47.22645" lon="6.03588">
        <ele>324.2</ele>
        <time>2000-01-01T02:25:58.000Z</time>
      </trkpt>
      <trkpt lat="47.22633" lon="6.03585">
        <ele>322</ele>
        <time>2000-01-01T02:26:08.000Z</time>
      </trkpt>
      <trkpt lat="47.22608" lon="6.03581">
        <ele>325</ele>
        <time>2000-01-01T02:26:18.000Z</time>
      </trkpt>
      <trkpt lat="47.22593" lon="6.03576">
        <ele>326</ele>
        <time>2000-01-01T02:26:28.000Z</time>
      </trkpt>
      <trkpt lat="47.22558" lon="6.0356">
        <ele>331</ele>
        <time>2000-01-01T02:26:38.000Z</time>
      </trkpt>
      <trkpt lat="47.22542" lon="6.03561">
        <ele>326.7</ele>
        <time>2000-01-01T02:26:48.000Z</time>
      </trkpt>
      <trkpt lat="47.22525" lon="6.03568">
        <ele>335</ele>
        <time>2000-01-01T02:26:58.000Z</time>
      </trkpt>
      <trkpt lat="47.22512" lon="6.03583">
        <ele>333.1</ele>
        <time>2000-01-01T02:27:08.000Z</time>
      </trkpt>
      <trkpt lat="47.22491" lon="6.03614">
        <ele>338</ele>
        <time>2000-01-01T02:27:18.000Z</time>
      </trkpt>
      <trkpt lat="47.22462" lon="6.03626">
        <ele>339</ele>
        <time>2000-01-01T02:27:28.000Z</time>
      </trkpt>
      <trkpt lat="47.22445" lon="6.03624">
        <ele>341.9</ele>
        <time>2000-01-01T02:27:38.000Z</time>
      </trkpt>
      <trkpt lat="47.22432" lon="6.03615">
        <ele>344</ele>
        <time>2000-01-01T02:27:48.000Z</time>
      </trkpt>
      <trkpt lat="47.22407" lon="6.03624">
        <ele>349</ele>
        <time>2000-01-01T02:27:58.000Z</time>
      </trkpt>
      <trkpt lat="47.22378" lon="6.03614">
        <ele>352</ele>
        <time>2000-01-01T02:28:08.000Z</time>
      </trkpt>
      <trkpt lat="47.22339" lon="6.03594">
        <ele>357</ele>
        <time>2000-01-01T02:28:18.000Z</time>
      </trkpt>
      <trkpt lat="47.22309" lon="6.03592">
        <ele>359</ele>
        <time>2000-01-01T02:28:28.000Z</time>
      </trkpt>
      <trkpt lat="47.22291" lon="6.03581">
        <ele>360</ele>
        <time>2000-01-01T02:28:38.000Z</time>
      </trkpt>
      <trkpt lat="47.22274" lon="6.03565">
        <ele>361</ele>
        <time>2000-01-01T02:28:48.000Z</time>
      </trkpt>
      <trkpt lat="47.22243" lon="6.0353">
        <ele>364</ele>
        <time>2000-01-01T02:28:58.000Z</time>
      </trkpt>
      <trkpt lat="47.22209" lon="6.03484">
        <ele>366</ele>
        <time>2000-01-01T02:29:08.000Z</time>
      </trkpt>
      <trkpt lat="47.22174" lon="6.03445">
        <ele>369</ele>
        <time>2000-01-01T02:29:18.000Z</time>
      </trkpt>
      <trkpt lat="47.22139" lon="6.03484">
        <ele>375</ele>
        <time>2000-01-01T02:29:28.000Z</time>
      </trkpt>
      <trkpt lat="47.22121" lon="6.03509">
        <ele>376</ele>
        <time>2000-01-01T02:29:38.000Z</time>
      </trkpt>
      <trkpt lat="47.2211" lon="6.03508">
        <ele>374.4</ele>
        <time>2000-01-01T02:29:48.000Z</time>
      </trkpt>
      <trkpt lat="47.22095" lon="6.03471">
        <ele>382</ele>
        <time>2000-01-01T02:29:58.000Z</time>
      </trkpt>
      <trkpt lat="47.22089" lon="6.03451">
        <ele>378.4</ele>
        <time>2000-01-01T02:30:08.000Z</time>
      </trkpt>
      <trkpt lat="47.2206" lon="6.03448">
        <ele>389</ele>
        <time>2000-01-01T02:30:18.000Z</time>
      </trkpt>
      <trkpt lat="47.22037" lon="6.03449">
        <ele>391</ele>
        <time>2000-01-01T02:30:28.000Z</time>
      </trkpt>
      <trkpt lat="47.22014" lon="6.03449">
        <ele>394</ele>
        <time>2000-01-01T02:30:38.000Z</time>
      </trkpt>
      <trkpt lat="47.21959" lon="6.03444">
        <ele>403</ele>
        <time>2000-01-01T02:30:48.000Z</time>
      </trkpt>
      <trkpt lat="47.21931" lon="6.03441">
        <ele>405</ele>
        <time>2000-01-01T02:30:58.000Z</time>
      </trkpt>
      <trkpt lat="47.21904" lon="6.03437">
        <ele>408</ele>
        <time>2000-01-01T02:31:08.000Z</time>
      </trkpt>
      <trkpt lat="47.21882" lon="6.0343">
        <ele>410</ele>
        <time>2000-01-01T02:31:18.000Z</time>
      </trkpt>
      <trkpt lat="47.21857" lon="6.03439">
        <ele>410</ele>
        <time>2000-01-01T02:31:28.000Z</time>
      </trkpt>
      <trkpt lat="47.21822" lon="6.0345">
        <ele>410</ele>
        <time>2000-01-01T02:31:38.000Z</time>
      </trkpt>
      <trkpt lat="47.21793" lon="6.03453">
        <ele>410</ele>
        <time>2000-01-01T02:31:48.000Z</time>
      </trkpt>
      <trkpt lat="47.21769" lon="6.0347">
        <ele>412</ele>
        <time>2000-01-01T02:31:58.000Z</time>
      </trkpt>
      <trkpt lat="47.21756" lon="6.03468">
        <ele>408.9</ele>
        <time>2000-01-01T02:32:08.000Z</time>
      </trkpt>
      <trkpt lat="47.21746" lon="6.03454">
        <ele>414</ele>
        <time>2000-01-01T02:32:18.000Z</time>
      </trkpt>
      <trkpt lat="47.21737" lon="6.03423">
        <ele>417</ele>
        <time>2000-01-01T02:32:28.000Z</time>
      </trkpt>
      <trkpt lat="47.21734" lon="6.03386">
        <ele>418</ele>
        <time>2000-01-01T02:32:38.000Z</time>
      </trkpt>
      <trkpt lat="47.21714" lon="6.03342">
        <ele>420</ele>
        <time>2000-01-01T02:32:48.000Z</time>
      </trkpt>
      <trkpt lat="47.2169" lon="6.03286">
        <ele>421</ele>
        <time>2000-01-01T02:32:58.000Z</time>
      </trkpt>
      <trkpt lat="47.21682" lon="6.0325">
        <ele>421</ele>
        <time>2000-01-01T02:33:08.000Z</time>
      </trkpt>
      <trkpt lat="47.2167" lon="6.03202">
        <ele>422</ele>
        <time>2000-01-01T02:33:18.000Z</time>
      </trkpt>
      <trkpt lat="47.21666" lon="6.03163">
        <ele>423</ele>
        <time>2000-01-01T02:33:28.000Z</time>
      </trkpt>
      <trkpt lat="47.21647" lon="6.03089">
        <ele>424</ele>
        <time>2000-01-01T02:33:38.000Z</time>
      </trkpt>
      <trkpt lat="47.21634" lon="6.03051">
        <ele>424</ele>
        <time>2000-01-01T02:33:48.000Z</time>
      </trkpt>
      <trkpt lat="47.21618" lon="6.02985">
        <ele>423</ele>
        <time>2000-01-01T02:33:58.000Z</time>
      </trkpt>
      <trkpt lat="47.21616" lon="6.02927">
        <ele>424</ele>
        <time>2000-01-01T02:34:08.000Z</time>
      </trkpt>
      <trkpt lat="47.21606" lon="6.02896">
        <ele>424</ele>
        <time>2000-01-01T02:34:18.000Z</time>
      </trkpt>
      <trkpt lat="47.21597" lon="6.02865">
        <ele>423</ele>
        <time>2000-01-01T02:34:28.000Z</time>
      </trkpt>
      <trkpt lat="47.2158" lon="6.02816">
        <ele>420</ele>
        <time>2000-01-01T02:34:38.000Z</time>
      </trkpt>
      <trkpt lat="47.21561" lon="6.02775">
        <ele>420</ele>
        <time>2000-01-01T02:34:48.000Z</time>
      </trkpt>
      <trkpt lat="47.21535" lon="6.02756">
        <ele>427</ele>
        <time>2000-01-01T02:34:58.000Z</time>
      </trkpt>
      <trkpt lat="47.21504" lon="6.02697">
        <ele>431</ele>
        <time>2000-01-01T02:35:08.000Z</time>
      </trkpt>
      <trkpt lat="47.21495" lon="6.02659">
        <ele>432</ele>
        <time>2000-01-01T02:35:18.000Z</time>
      </trkpt>
      <trkpt lat="47.21485" lon="6.0262">
        <ele>435</ele>
        <time>2000-01-01T02:35:28.000Z</time>
      </trkpt>
      <trkpt lat="47.21483" lon="6.02544">
        <ele>435</ele>
        <time>2000-01-01T02:35:38.000Z</time>
      </trkpt>
      <trkpt lat="47.21477" lon="6.0252">
        <ele>440.7</ele>
        <time>2000-01-01T02:35:48.000Z</time>
      </trkpt>
      <trkpt lat="47.21463" lon="6.02482">
        <ele>440</ele>
        <time>2000-01-01T02:35:58.000Z</time>
      </trkpt>
      <trkpt lat="47.21455" lon="6.0245">
        <ele>442</ele>
        <time>2000-01-01T02:36:08.000Z</time>
      </trkpt>
      <trkpt lat="47.21449" lon="6.02419">
        <ele>442</ele>
        <time>2000-01-01T02:36:18.000Z</time>
      </trkpt>
      <trkpt lat="47.21428" lon="6.02383">
        <ele>444</ele>
        <time>2000-01-01T02:36:28.000Z</time>
      </trkpt>
      <trkpt lat="47.21404" lon="6.0233">
        <ele>447</ele>
        <time>2000-01-01T02:36:38.000Z</time>
      </trkpt>
      <trkpt lat="47.21403" lon="6.02306">
        <ele>453.2</ele>
        <time>2000-01-01T02:36:48.000Z</time>
      </trkpt>
      <trkpt lat="47.21384" lon="6.02284">
        <ele>447</ele>
        <time>2000-01-01T02:36:58.000Z</time>
      </trkpt>
      <trkpt lat="47.21364" lon="6.02256">
        <ele>446</ele>
        <time>2000-01-01T02:37:08.000Z</time>
      </trkpt>
      <trkpt lat="47.21342" lon="6.02239">
        <ele>446</ele>
        <time>2000-01-01T02:37:18.000Z</time>
      </trkpt>
      <trkpt lat="47.21319" lon="6.02216">
        <ele>445</ele>
        <time>2000-01-01T02:37:28.000Z</time>
      </trkpt>
      <trkpt lat="47.2132" lon="6.0217">
        <ele>441</ele>
        <time>2000-01-01T02:37:38.000Z</time>
      </trkpt>
      <trkpt lat="47.21304" lon="6.02133">
        <ele>438</ele>
        <time>2000-01-01T02:37:48.000Z</time>
      </trkpt>
      <trkpt lat="47.21306" lon="6.02112">
        <ele>445.5</ele>
        <time>2000-01-01T02:37:58.000Z</time>
      </trkpt>
      <trkpt lat="47.21306" lon="6.02094">
        <ele>435</ele>
        <time>2000-01-01T02:38:08.000Z</time>
      </trkpt>
      <trkpt lat="47.21324" lon="6.02045">
        <ele>431</ele>
        <time>2000-01-01T02:38:18.000Z</time>
      </trkpt>
      <trkpt lat="47.21331" lon="6.01996">
        <ele>429</ele>
        <time>2000-01-01T02:38:28.000Z</time>
      </trkpt>
      <trkpt lat="47.21328" lon="6.01963">
        <ele>429</ele>
        <time>2000-01-01T02:38:38.000Z</time>
      </trkpt>
      <trkpt lat="47.21345" lon="6.01924">
        <ele>426</ele>
        <time>2000-01-01T02:38:48.000Z</time>
      </trkpt>
      <trkpt lat="47.21356" lon="6.01888">
        <ele>425</ele>
        <time>2000-01-01T02:38:58.000Z</time>
      </trkpt>
      <trkpt lat="47.21356" lon="6.01861">
        <ele>424</ele>
        <time>2000-01-01T02:39:08.000Z</time>
      </trkpt>
      <trkpt lat="47.2135" lon="6.01833">
        <ele>423</ele>
        <time>2000-01-01T02:39:18.000Z</time>
      </trkpt>
      <trkpt lat="47.2134" lon="6.01772">
        <ele>423</ele>
        <time>2000-01-01T02:39:28.000Z</time>
      </trkpt>
      <trkpt lat="47.21322" lon="6.01735">
        <ele>424</ele>
        <time>2000-01-01T02:39:38.000Z</time>
      </trkpt>
      <trkpt lat="47.21324" lon="6.01691">
        <ele>425</ele>
        <time>2000-01-01T02:39:48.000Z</time>
      </trkpt>
      <trkpt lat="47.21318" lon="6.01667">
        <ele>427.8</ele>
        <time>2000-01-01T02:39:58.000Z</time>
      </trkpt>
      <trkpt lat="47.21297" lon="6.01624">
        <ele>426</ele>
        <time>2000-01-01T02:40:08.000Z</time>
      </trkpt>
      <trkpt lat="47.21282" lon="6.01595">
        <ele>426</ele>
        <time>2000-01-01T02:40:18.000Z</time>
      </trkpt>
      <trkpt lat="47.21271" lon="6.01564">
        <ele>425</ele>
        <time>2000-01-01T02:40:28.000Z</time>
      </trkpt>
      <trkpt lat="47.21247" lon="6.01511">
        <ele>425</ele>
        <time>2000-01-01T02:40:38.000Z</time>
      </trkpt>
      <trkpt lat="47.21223" lon="6.01472">
        <ele>424</ele>
        <time>2000-01-01T02:40:48.000Z</time>
      </trkpt>
      <trkpt lat="47.212" lon="6.01444">
        <ele>423</ele>
        <time>2000-01-01T02:40:58.000Z</time>
      </trkpt>
      <trkpt lat="47.21181" lon="6.01419">
        <ele>422</ele>
        <time>2000-01-01T02:41:08.000Z</time>
      </trkpt>
      <trkpt lat="47.21157" lon="6.01389">
        <ele>422</ele>
        <time>2000-01-01T02:41:18.000Z</time>
      </trkpt>
      <trkpt lat="47.21122" lon="6.01355">
        <ele>422</ele>
        <time>2000-01-01T02:41:28.000Z</time>
      </trkpt>
      <trkpt lat="47.21105" lon="6.01349">
        <ele>422</ele>
        <time>2000-01-01T02:41:38.000Z</time>
      </trkpt>
      <trkpt lat="47.21092" lon="6.01337">
        <ele>427.9</ele>
        <time>2000-01-01T02:41:48.000Z</time>
      </trkpt>
      <trkpt lat="47.21059" lon="6.01294">
        <ele>418</ele>
        <time>2000-01-01T02:41:58.000Z</time>
      </trkpt>
      <trkpt lat="47.21036" lon="6.01259">
        <ele>417</ele>
        <time>2000-01-01T02:42:08.000Z</time>
      </trkpt>
      <trkpt lat="47.21028" lon="6.01258">
        <ele>420.2</ele>
        <time>2000-01-01T02:42:18.000Z</time>
      </trkpt>
      <trkpt lat="47.21016" lon="6.01269">
        <ele>417</ele>
        <time>2000-01-01T02:42:28.000Z</time>
      </trkpt>
      <trkpt lat="47.21005" lon="6.01284">
        <ele>421.7</ele>
        <time>2000-01-01T02:42:38.000Z</time>
      </trkpt>
      <trkpt lat="47.2098" lon="6.01316">
        <ele>418</ele>
        <time>2000-01-01T02:42:48.000Z</time>
      </trkpt>
      <trkpt lat="47.20963" lon="6.01313">
        <ele>424.5</ele>
        <time>2000-01-01T02:42:58.000Z</time>
      </trkpt>
      <trkpt lat="47.20948" lon="6.01305">
        <ele>418</ele>
        <time>2000-01-01T02:43:08.000Z</time>
      </trkpt>
      <trkpt lat="47.20922" lon="6.01286">
        <ele>418</ele>
        <time>2000-01-01T02:43:18.000Z</time>
      </trkpt>
      <trkpt lat="47.20889" lon="6.01256">
        <ele>415</ele>
        <time>2000-01-01T02:43:28.000Z</time>
      </trkpt>
      <trkpt lat="47.20879" lon="6.01249">
        <ele>416.7</ele>
        <time>2000-01-01T02:43:38.000Z</time>
      </trkpt>
      <trkpt lat="47.20853" lon="6.01279">
        <ele>411</ele>
        <time>2000-01-01T02:43:48.000Z</time>
      </trkpt>
      <trkpt lat="47.20833" lon="6.01274">
        <ele>408</ele>
        <time>2000-01-01T02:43:58.000Z</time>
      </trkpt>
      <trkpt lat="47.20813" lon="6.01226">
        <ele>407</ele>
        <time>2000-01-01T02:44:08.000Z</time>
      </trkpt>
      <trkpt lat="47.20802" lon="6.01196">
        <ele>403</ele>
        <time>2000-01-01T02:44:18.000Z</time>
      </trkpt>
      <trkpt lat="47.2078" lon="6.01179">
        <ele>395</ele>
        <time>2000-01-01T02:44:28.000Z</time>
      </trkpt>
      <trkpt lat="47.20764" lon="6.01179">
        <ele>396.1</ele>
        <time>2000-01-01T02:44:38.000Z</time>
      </trkpt>
      <trkpt lat="47.20746" lon="6.01222">
        <ele>394</ele>
        <time>2000-01-01T02:44:48.000Z</time>
      </trkpt>
      <trkpt lat="47.20741" lon="6.01236">
        <ele>389.2</ele>
        <time>2000-01-01T02:44:58.000Z</time>
      </trkpt>
      <trkpt lat="47.20741" lon="6.01251">
        <ele>392</ele>
        <time>2000-01-01T02:45:08.000Z</time>
      </trkpt>
      <trkpt lat="47.20748" lon="6.0129">
        <ele>388</ele>
        <time>2000-01-01T02:45:18.000Z</time>
      </trkpt>
      <trkpt lat="47.20764" lon="6.01335">
        <ele>385</ele>
        <time>2000-01-01T02:45:28.000Z</time>
      </trkpt>
      <trkpt lat="47.20777" lon="6.01379">
        <ele>382</ele>
        <time>2000-01-01T02:45:38.000Z</time>
      </trkpt>
      <trkpt lat="47.20814" lon="6.01433">
        <ele>376</ele>
        <time>2000-01-01T02:45:48.000Z</time>
      </trkpt>
      <trkpt lat="47.20822" lon="6.01478">
        <ele>373</ele>
        <time>2000-01-01T02:45:58.000Z</time>
      </trkpt>
      <trkpt lat="47.20817" lon="6.01516">
        <ele>370</ele>
        <time>2000-01-01T02:46:08.000Z</time>
      </trkpt>
      <trkpt lat="47.20812" lon="6.01563">
        <ele>369</ele>
        <time>2000-01-01T02:46:18.000Z</time>
      </trkpt>
      <trkpt lat="47.20806" lon="6.01632">
        <ele>360</ele>
        <time>2000-01-01T02:46:28.000Z</time>
      </trkpt>
      <trkpt lat="47.20813" lon="6.01696">
        <ele>359</ele>
        <time>2000-01-01T02:46:38.000Z</time>
      </trkpt>
      <trkpt lat="47.2083" lon="6.01736">
        <ele>358</ele>
        <time>2000-01-01T02:46:48.000Z</time>
      </trkpt>
      <trkpt lat="47.2084" lon="6.01756">
        <ele>355.7</ele>
        <time>2000-01-01T02:46:58.000Z</time>
      </trkpt>
      <trkpt lat="47.2084" lon="6.01776">
        <ele>353</ele>
        <time>2000-01-01T02:47:08.000Z</time>
      </trkpt>
      <trkpt lat="47.20833" lon="6.01859">
        <ele>349</ele>
        <time>2000-01-01T02:47:18.000Z</time>
      </trkpt>
      <trkpt lat="47.20822" lon="6.01894">
        <ele>346</ele>
        <time>2000-01-01T02:47:28.000Z</time>
      </trkpt>
      <trkpt lat="47.20808" lon="6.01893">
        <ele>344.1</ele>
        <time>2000-01-01T02:47:38.000Z</time>
      </trkpt>
      <trkpt lat="47.20803" lon="6.01876">
        <ele>342</ele>
        <time>2000-01-01T02:47:48.000Z</time>
      </trkpt>
      <trkpt lat="47.20797" lon="6.01829">
        <ele>339</ele>
        <time>2000-01-01T02:47:58.000Z</time>
      </trkpt>
      <trkpt lat="47.20769" lon="6.01777">
        <ele>334</ele>
        <time>2000-01-01T02:48:08.000Z</time>
      </trkpt>
      <trkpt lat="47.20755" lon="6.01744">
        <ele>333</ele>
        <time>2000-01-01T02:48:18.000Z</time>
      </trkpt>
      <trkpt lat="47.20738" lon="6.01699">
        <ele>328</ele>
        <time>2000-01-01T02:48:28.000Z</time>
      </trkpt>
      <trkpt lat="47.20726" lon="6.01664">
        <ele>327</ele>
        <time>2000-01-01T02:48:38.000Z</time>
      </trkpt>
      <trkpt lat="47.20711" lon="6.01614">
        <ele>326</ele>
        <time>2000-01-01T02:48:48.000Z</time>
      </trkpt>
      <trkpt lat="47.20665" lon="6.01529">
        <ele>315</ele>
        <time>2000-01-01T02:48:58.000Z</time>
      </trkpt>
      <trkpt lat="47.20647" lon="6.0151">
        <ele>311</ele>
        <time>2000-01-01T02:49:08.000Z</time>
      </trkpt>
      <trkpt lat="47.20613" lon="6.0149">
        <ele>310</ele>
        <time>2000-01-01T02:49:18.000Z</time>
      </trkpt>
      <trkpt lat="47.20598" lon="6.01442">
        <ele>309</ele>
        <time>2000-01-01T02:49:28.000Z</time>
      </trkpt>
      <trkpt lat="47.20576" lon="6.01396">
        <ele>309</ele>
        <time>2000-01-01T02:49:38.000Z</time>
      </trkpt>
      <trkpt lat="47.20546" lon="6.0132">
        <ele>308</ele>
        <time>2000-01-01T02:49:48.000Z</time>
      </trkpt>
      <trkpt lat="47.2054" lon="6.01287">
        <ele>306</ele>
        <time>2000-01-01T02:49:58.000Z</time>
      </trkpt>
      <trkpt lat="47.20544" lon="6.01264">
        <ele>313.9</ele>
        <time>2000-01-01T02:50:08.000Z</time>
      </trkpt>
      <trkpt lat="47.20566" lon="6.01239">
        <ele>306</ele>
        <time>2000-01-01T02:50:18.000Z</time>
      </trkpt>
      <trkpt lat="47.20566" lon="6.01197">
        <ele>304</ele>
        <time>2000-01-01T02:50:28.000Z</time>
      </trkpt>
      <trkpt lat="47.20564" lon="6.0116">
        <ele>302</ele>
        <time>2000-01-01T02:50:38.000Z</time>
      </trkpt>
      <trkpt lat="47.20563" lon="6.01097">
        <ele>311.7</ele>
        <time>2000-01-01T02:50:48.000Z</time>
      </trkpt>
      <trkpt lat="47.20574" lon="6.01066">
        <ele>288</ele>
        <time>2000-01-01T02:50:58.000Z</time>
      </trkpt>
      <trkpt lat="47.2058" lon="6.01029">
        <ele>285</ele>
        <time>2000-01-01T02:51:08.000Z</time>
      </trkpt>
      <trkpt lat="47.20589" lon="6.00981">
        <ele>282</ele>
        <time>2000-01-01T02:51:18.000Z</time>
      </trkpt>
      <trkpt lat="47.20609" lon="6.00932">
        <ele>279</ele>
        <time>2000-01-01T02:51:28.000Z</time>
      </trkpt>
      <trkpt lat="47.20634" lon="6.00884">
        <ele>278</ele>
        <time>2000-01-01T02:51:38.000Z</time>
      </trkpt>
      <trkpt lat="47.20687" lon="6.00758">
        <ele>264</ele>
        <time>2000-01-01T02:51:48.000Z</time>
      </trkpt>
      <trkpt lat="47.207" lon="6.00725">
        <ele>261</ele>
        <time>2000-01-01T02:51:58.000Z</time>
      </trkpt>
      <trkpt lat="47.20709" lon="6.00688">
        <ele>259</ele>
        <time>2000-01-01T02:52:08.000Z</time>
      </trkpt>
      <trkpt lat="47.20719" lon="6.00631">
        <ele>258</ele>
        <time>2000-01-01T02:52:18.000Z</time>
      </trkpt>
      <trkpt lat="47.20713" lon="6.00573">
        <ele>255</ele>
        <time>2000-01-01T02:52:28.000Z</time>
      </trkpt>
      <trkpt lat="47.20705" lon="6.00541">
        <ele>253</ele>
        <time>2000-01-01T02:52:38.000Z</time>
      </trkpt>
      <trkpt lat="47.20687" lon="6.00514">
        <ele>252</ele>
        <time>2000-01-01T02:52:48.000Z</time>
      </trkpt>
      <trkpt lat="47.20696" lon="6.00478">
        <ele>251</ele>
        <time>2000-01-01T02:52:58.000Z</time>
      </trkpt>
      <trkpt lat="47.20703" lon="6.0044">
        <ele>248</ele>
        <time>2000-01-01T02:53:08.000Z</time>
      </trkpt>
      <trkpt lat="47.20713" lon="6.004">
        <ele>247</ele>
        <time>2000-01-01T02:53:18.000Z</time>
      </trkpt>
      <trkpt lat="47.20724" lon="6.00368">
        <ele>244</ele>
        <time>2000-01-01T02:53:28.000Z</time>
      </trkpt>
      <trkpt lat="47.20719" lon="6.0034">
        <ele>244</ele>
        <time>2000-01-01T02:53:38.000Z</time>
      </trkpt>
      <trkpt lat="47.2071" lon="6.00305">
        <ele>244</ele>
        <time>2000-01-01T02:53:48.000Z</time>
      </trkpt>
      <trkpt lat="47.20738" lon="6.00277">
        <ele>243</ele>
        <time>2000-01-01T02:53:58.000Z</time>
      </trkpt>
      <trkpt lat="47.20752" lon="6.00255">
        <ele>242</ele>
        <time>2000-01-01T02:54:08.000Z</time>
      </trkpt>
      <trkpt lat="47.20777" lon="6.00233">
        <ele>241</ele>
        <time>2000-01-01T02:54:18.000Z</time>
      </trkpt>
      <trkpt lat="47.20798" lon="6.00204">
        <ele>241</ele>
        <time>2000-01-01T02:54:28.000Z</time>
      </trkpt>
      <trkpt lat="47.20821" lon="6.00175">
        <ele>241</ele>
        <time>2000-01-01T02:54:38.000Z</time>
      </trkpt>
      <trkpt lat="47.20844" lon="6.00151">
        <ele>240</ele>
        <time>2000-01-01T02:54:48.000Z</time>
      </trkpt>
      <trkpt lat="47.20882" lon="6.00091">
        <ele>240</ele>
        <time>2000-01-01T02:54:58.000Z</time>
      </trkpt>
      <trkpt lat="47.2088" lon="6.00066">
        <ele>239.7</ele>
        <time>2000-01-01T02:55:08.000Z</time>
      </trkpt>
      <trkpt lat="47.2088" lon="6.00037">
        <ele>240</ele>
        <time>2000-01-01T02:55:18.000Z</time>
      </trkpt>
      <trkpt lat="47.20886" lon="6.00023">
        <ele>238.6</ele>
        <time>2000-01-01T02:55:28.000Z</time>
      </trkpt>
      <trkpt lat="47.20923" lon="6.00034">
        <ele>241</ele>
        <time>2000-01-01T02:55:38.000Z</time>
      </trkpt>
      <trkpt lat="47.20954" lon="6.00034">
        <ele>241</ele>
        <time>2000-01-01T02:55:48.000Z</time>
      </trkpt>
      <trkpt lat="47.20974" lon="6.00033">
        <ele>241</ele>
        <time>2000-01-01T02:55:58.000Z</time>
      </trkpt>
      <trkpt lat="47.20988" lon="6.0001">
        <ele>241</ele>
        <time>2000-01-01T02:56:08.000Z</time>
      </trkpt>
      <trkpt lat="47.21001" lon="6.00016">
        <ele>238.4</ele>
        <time>2000-01-01T02:56:18.000Z</time>
      </trkpt>
      <trkpt lat="47.21014" lon="5.99996">
        <ele>242</ele>
        <time>2000-01-01T02:56:28.000Z</time>
      </trkpt>
      <trkpt lat="47.21031" lon="5.99966">
        <ele>242</ele>
        <time>2000-01-01T02:56:38.000Z</time>
      </trkpt>
      <trkpt lat="47.2104" lon="5.99944">
        <ele>235.9</ele>
        <time>2000-01-01T02:56:48.000Z</time>
      </trkpt>
      <trkpt lat="47.21042" lon="5.99914">
        <ele>243</ele>
        <time>2000-01-01T02:56:58.000Z</time>
      </trkpt>
      <trkpt lat="47.21052" lon="5.99901">
        <ele>235</ele>
        <time>2000-01-01T02:57:08.000Z</time>
      </trkpt>
      <trkpt lat="47.21063" lon="5.99895">
        <ele>243</ele>
        <time>2000-01-01T02:57:18.000Z</time>
      </trkpt>
      <trkpt lat="47.21066" lon="5.99884">
        <ele>234.7</ele>
        <time>2000-01-01T02:57:28.000Z</time>
      </trkpt>
      <trkpt lat="47.21072" lon="5.99871">
        <ele>243</ele>
        <time>2000-01-01T02:57:38.000Z</time>
      </trkpt>
      <trkpt lat="47.21084" lon="5.99852">
        <ele>234.2</ele>
        <time>2000-01-01T02:57:48.000Z</time>
      </trkpt>
      <trkpt lat="47.21092" lon="5.9983">
        <ele>237</ele>
        <time>2000-01-01T02:57:58.000Z</time>
      </trkpt>
      <trkpt lat="47.21103" lon="5.99812">
        <ele>233.3</ele>
        <time>2000-01-01T02:58:08.000Z</time>
      </trkpt>
      <trkpt lat="47.21289" lon="5.99999">
        <ele>236</ele>
        <time>2000-01-01T02:58:18.000Z</time>
      </trkpt>
      <trkpt lat="47.21346" lon="6.00059">
        <ele>237</ele>
        <time>2000-01-01T02:58:28.000Z</time>
      </trkpt>
      <trkpt lat="47.21369" lon="6.00084">
        <ele>237</ele>
        <time>2000-01-01T02:58:38.000Z</time>
      </trkpt>
      <trkpt lat="47.21404" lon="6.00124">
        <ele>237</ele>
        <time>2000-01-01T02:58:48.000Z</time>
      </trkpt>
      <trkpt lat="47.21424" lon="6.0015">
        <ele>237</ele>
        <time>2000-01-01T02:58:58.000Z</time>
      </trkpt>
      <trkpt lat="47.21453" lon="6.00186">
        <ele>237</ele>
        <time>2000-01-01T02:59:08.000Z</time>
      </trkpt>
      <trkpt lat="47.2147" lon="6.00213">
        <ele>238</ele>
        <time>2000-01-01T02:59:18.000Z</time>
      </trkpt>
      <trkpt lat="47.21492" lon="6.00246">
        <ele>238</ele>
        <time>2000-01-01T02:59:28.000Z</time>
      </trkpt>
      <trkpt lat="47.21541" lon="6.00306">
        <ele>238</ele>
        <time>2000-01-01T02:59:38.000Z</time>
      </trkpt>
      <trkpt lat="47.21588" lon="6.00379">
        <ele>238</ele>
        <time>2000-01-01T02:59:48.000Z</time>
      </trkpt>
      <trkpt lat="47.21595" lon="6.00431">
        <ele>237</ele>
        <time>2000-01-01T02:59:58.000Z</time>
      </trkpt>
      <trkpt lat="47.21611" lon="6.00478">
        <ele>237</ele>
        <time>2000-01-01T03:00:08.000Z</time>
      </trkpt>
      <trkpt lat="47.21615" lon="6.00518">
        <ele>237</ele>
        <time>2000-01-01T03:00:18.000Z</time>
      </trkpt>
      <trkpt lat="47.2162" lon="6.00579">
        <ele>238</ele>
        <time>2000-01-01T03:00:28.000Z</time>
      </trkpt>
      <trkpt lat="47.21636" lon="6.00647">
        <ele>238</ele>
        <time>2000-01-01T03:00:38.000Z</time>
      </trkpt>
      <trkpt lat="47.21646" lon="6.00779">
        <ele>238</ele>
        <time>2000-01-01T03:00:48.000Z</time>
      </trkpt>
      <trkpt lat="47.21651" lon="6.00876">
        <ele>238</ele>
        <time>2000-01-01T03:00:58.000Z</time>
      </trkpt>
      <trkpt lat="47.21652" lon="6.00914">
        <ele>238</ele>
        <time>2000-01-01T03:01:08.000Z</time>
      </trkpt>
      <trkpt lat="47.21654" lon="6.00963">
        <ele>238</ele>
        <time>2000-01-01T03:01:18.000Z</time>
      </trkpt>
      <trkpt lat="47.21661" lon="6.01039">
        <ele>238</ele>
        <time>2000-01-01T03:01:28.000Z</time>
      </trkpt>
      <trkpt lat="47.21665" lon="6.01077">
        <ele>238</ele>
        <time>2000-01-01T03:01:38.000Z</time>
      </trkpt>
      <trkpt lat="47.21665" lon="6.01113">
        <ele>238</ele>
        <time>2000-01-01T03:01:48.000Z</time>
      </trkpt>
      <trkpt lat="47.21664" lon="6.01154">
        <ele>239</ele>
        <time>2000-01-01T03:01:58.000Z</time>
      </trkpt>
      <trkpt lat="47.21667" lon="6.01242">
        <ele>239</ele>
        <time>2000-01-01T03:02:08.000Z</time>
      </trkpt>
      <trkpt lat="47.21681" lon="6.01371">
        <ele>238</ele>
        <time>2000-01-01T03:02:18.000Z</time>
      </trkpt>
      <trkpt lat="47.21683" lon="6.01418">
        <ele>238</ele>
        <time>2000-01-01T03:02:28.000Z</time>
      </trkpt>
      <trkpt lat="47.21686" lon="6.01465">
        <ele>239</ele>
        <time>2000-01-01T03:02:38.000Z</time>
      </trkpt>
      <trkpt lat="47.21689" lon="6.01531">
        <ele>239</ele>
        <time>2000-01-01T03:02:48.000Z</time>
      </trkpt>
      <trkpt lat="47.21696" lon="6.01609">
        <ele>239</ele>
        <time>2000-01-01T03:02:58.000Z</time>
      </trkpt>
      <trkpt lat="47.21698" lon="6.01659">
        <ele>239</ele>
        <time>2000-01-01T03:03:08.000Z</time>
      </trkpt>
      <trkpt lat="47.21705" lon="6.01718">
        <ele>240</ele>
        <time>2000-01-01T03:03:18.000Z</time>
      </trkpt>
      <trkpt lat="47.21708" lon="6.01757">
        <ele>240</ele>
        <time>2000-01-01T03:03:28.000Z</time>
      </trkpt>
      <trkpt lat="47.2171" lon="6.01813">
        <ele>240</ele>
        <time>2000-01-01T03:03:38.000Z</time>
      </trkpt>
      <trkpt lat="47.21708" lon="6.01859">
        <ele>239</ele>
        <time>2000-01-01T03:03:48.000Z</time>
      </trkpt>
      <trkpt lat="47.21735" lon="6.01848">
        <ele>238</ele>
        <time>2000-01-01T03:03:58.000Z</time>
      </trkpt>
      <trkpt lat="47.21782" lon="6.01831">
        <ele>235</ele>
        <time>2000-01-01T03:04:08.000Z</time>
      </trkpt>
      <trkpt lat="47.21805" lon="6.01817">
        <ele>235</ele>
        <time>2000-01-01T03:04:18.000Z</time>
      </trkpt>
      <trkpt lat="47.21828" lon="6.01807">
        <ele>236</ele>
        <time>2000-01-01T03:04:28.000Z</time>
      </trkpt>
      <trkpt lat="47.21801" lon="6.01698">
        <ele>236</ele>
        <time>2000-01-01T03:04:38.000Z</time>
      </trkpt>
      <trkpt lat="47.21812" lon="6.01781">
        <ele>236</ele>
        <time>2000-01-01T03:04:48.000Z</time>
      </trkpt>
      <trkpt lat="47.21822" lon="6.01812">
        <ele>237</ele>
        <time>2000-01-01T03:04:58.000Z</time>
      </trkpt>
      <trkpt lat="47.21831" lon="6.01844">
        <ele>237</ele>
        <time>2000-01-01T03:05:08.000Z</time>
      </trkpt>
      <trkpt lat="47.21843" lon="6.01883">
        <ele>237</ele>
        <time>2000-01-01T03:05:18.000Z</time>
      </trkpt>
      <trkpt lat="47.21852" lon="6.01904">
        <ele>238</ele>
        <time>2000-01-01T03:05:28.000Z</time>
      </trkpt>
      <trkpt lat="47.2187" lon="6.01963">
        <ele>237</ele>
        <time>2000-01-01T03:05:38.000Z</time>
      </trkpt>
      <trkpt lat="47.21885" lon="6.02002">
        <ele>237</ele>
        <time>2000-01-01T03:05:48.000Z</time>
      </trkpt>
      <trkpt lat="47.21901" lon="6.02029">
        <ele>237</ele>
        <time>2000-01-01T03:05:58.000Z</time>
      </trkpt>
      <trkpt lat="47.21912" lon="6.02036">
        <ele>238</ele>
        <time>2000-01-01T03:06:08.000Z</time>
      </trkpt>
      <trkpt lat="47.21924" lon="6.0203">
        <ele>237</ele>
        <time>2000-01-01T03:06:18.000Z</time>
      </trkpt>
      <trkpt lat="47.21933" lon="6.02073">
        <ele>238</ele>
        <time>2000-01-01T03:06:28.000Z</time>
      </trkpt>
      <trkpt lat="47.21951" lon="6.0212">
        <ele>238</ele>
        <time>2000-01-01T03:06:38.000Z</time>
      </trkpt>
      <trkpt lat="47.21961" lon="6.02139">
        <ele>242.8</ele>
        <time>2000-01-01T03:06:48.000Z</time>
      </trkpt>
      <trkpt lat="47.21993" lon="6.02195">
        <ele>238</ele>
        <time>2000-01-01T03:06:58.000Z</time>
      </trkpt>
      <trkpt lat="47.22013" lon="6.02223">
        <ele>238</ele>
        <time>2000-01-01T03:07:08.000Z</time>
      </trkpt>
      <trkpt lat="47.22026" lon="6.02251">
        <ele>238</ele>
        <time>2000-01-01T03:07:18.000Z</time>
      </trkpt>
      <trkpt lat="47.22038" lon="6.02288">
        <ele>238</ele>
        <time>2000-01-01T03:07:28.000Z</time>
      </trkpt>
      <trkpt lat="47.22053" lon="6.02329">
        <ele>238</ele>
        <time>2000-01-01T03:07:38.000Z</time>
      </trkpt>
      <trkpt lat="47.22069" lon="6.02367">
        <ele>238</ele>
        <time>2000-01-01T03:07:48.000Z</time>
      </trkpt>
      <trkpt lat="47.22083" lon="6.02406">
        <ele>238</ele>
        <time>2000-01-01T03:07:58.000Z</time>
      </trkpt>
      <trkpt lat="47.22097" lon="6.02447">
        <ele>238</ele>
        <time>2000-01-01T03:08:08.000Z</time>
      </trkpt>
      <trkpt lat="47.22103" lon="6.02471">
        <ele>243.8</ele>
        <time>2000-01-01T03:08:18.000Z</time>
      </trkpt>
      <trkpt lat="47.22111" lon="6.02487">
        <ele>238</ele>
        <time>2000-01-01T03:08:28.000Z</time>
      </trkpt>
      <trkpt lat="47.22123" lon="6.02529">
        <ele>238</ele>
        <time>2000-01-01T03:08:38.000Z</time>
      </trkpt>
      <trkpt lat="47.22138" lon="6.02562">
        <ele>238</ele>
        <time>2000-01-01T03:08:48.000Z</time>
      </trkpt>
      <trkpt lat="47.22158" lon="6.0261">
        <ele>238</ele>
        <time>2000-01-01T03:08:58.000Z</time>
      </trkpt>
      <trkpt lat="47.22174" lon="6.0265">
        <ele>238</ele>
        <time>2000-01-01T03:09:08.000Z</time>
      </trkpt>
      <trkpt lat="47.22193" lon="6.02689">
        <ele>238</ele>
        <time>2000-01-01T03:09:18.000Z</time>
      </trkpt>
      <trkpt lat="47.22213" lon="6.02728">
        <ele>238</ele>
        <time>2000-01-01T03:09:28.000Z</time>
      </trkpt>
      <trkpt lat="47.22235" lon="6.02766">
        <ele>238</ele>
        <time>2000-01-01T03:09:38.000Z</time>
      </trkpt>
      <trkpt lat="47.22265" lon="6.028">
        <ele>238</ele>
        <time>2000-01-01T03:09:48.000Z</time>
      </trkpt>
      <trkpt lat="47.22326" lon="6.0285">
        <ele>238</ele>
        <time>2000-01-01T03:09:58.000Z</time>
      </trkpt>
      <trkpt lat="47.22353" lon="6.02875">
        <ele>238</ele>
        <time>2000-01-01T03:10:08.000Z</time>
      </trkpt>
      <trkpt lat="47.22375" lon="6.02903">
        <ele>238</ele>
        <time>2000-01-01T03:10:18.000Z</time>
      </trkpt>
      <trkpt lat="47.22389" lon="6.02927">
        <ele>238</ele>
        <time>2000-01-01T03:10:28.000Z</time>
      </trkpt>
      <trkpt lat="47.22398" lon="6.02957">
        <ele>238</ele>
        <time>2000-01-01T03:10:38.000Z</time>
      </trkpt>
      <trkpt lat="47.22424" lon="6.0301">
        <ele>238</ele>
        <time>2000-01-01T03:10:48.000Z</time>
      </trkpt>
      <trkpt lat="47.22446" lon="6.03036">
        <ele>238</ele>
        <time>2000-01-01T03:10:58.000Z</time>
      </trkpt>
      <trkpt lat="47.22469" lon="6.03051">
        <ele>238</ele>
        <time>2000-01-01T03:11:08.000Z</time>
      </trkpt>
      <trkpt lat="47.225" lon="6.0307">
        <ele>238</ele>
        <time>2000-01-01T03:11:18.000Z</time>
      </trkpt>
      <trkpt lat="47.22527" lon="6.03089">
        <ele>238</ele>
        <time>2000-01-01T03:11:28.000Z</time>
      </trkpt>
      <trkpt lat="47.22587" lon="6.03137">
        <ele>239</ele>
        <time>2000-01-01T03:11:38.000Z</time>
      </trkpt>
      <trkpt lat="47.22605" lon="6.03143">
        <ele>244.6</ele>
        <time>2000-01-01T03:11:48.000Z</time>
      </trkpt>
      <trkpt lat="47.22621" lon="6.03145">
        <ele>239</ele>
        <time>2000-01-01T03:11:58.000Z</time>
      </trkpt>
      <trkpt lat="47.22634" lon="6.03154">
        <ele>243.7</ele>
        <time>2000-01-01T03:12:08.000Z</time>
      </trkpt>
      <trkpt lat="47.22656" lon="6.03152">
        <ele>239</ele>
        <time>2000-01-01T03:12:18.000Z</time>
      </trkpt>
      <trkpt lat="47.22694" lon="6.03138">
        <ele>238</ele>
        <time>2000-01-01T03:12:28.000Z</time>
      </trkpt>
      <trkpt lat="47.22704" lon="6.03181">
        <ele>238</ele>
        <time>2000-01-01T03:12:38.000Z</time>
      </trkpt>
      <trkpt lat="47.22714" lon="6.03237">
        <ele>238</ele>
        <time>2000-01-01T03:12:48.000Z</time>
      </trkpt>
      <trkpt lat="47.22759" lon="6.03217">
        <ele>238</ele>
        <time>2000-01-01T03:12:58.000Z</time>
      </trkpt>
      <trkpt lat="47.22796" lon="6.03193">
        <ele>239</ele>
        <time>2000-01-01T03:13:08.000Z</time>
      </trkpt>
      <trkpt lat="47.22823" lon="6.03166">
        <ele>239</ele>
        <time>2000-01-01T03:13:18.000Z</time>
      </trkpt>
      <trkpt lat="47.22841" lon="6.0313">
        <ele>238</ele>
        <time>2000-01-01T03:13:28.000Z</time>
      </trkpt>
      <trkpt lat="47.22859" lon="6.031">
        <ele>237</ele>
        <time>2000-01-01T03:13:38.000Z</time>
      </trkpt>
      <trkpt lat="47.22887" lon="6.03057">
        <ele>237</ele>
        <time>2000-01-01T03:13:48.000Z</time>
      </trkpt>
      <trkpt lat="47.22924" lon="6.03035">
        <ele>238</ele>
        <time>2000-01-01T03:13:58.000Z</time>
      </trkpt>
      <trkpt lat="47.22948" lon="6.03037">
        <ele>239</ele>
        <time>2000-01-01T03:14:08.000Z</time>
      </trkpt>
      <trkpt lat="47.22975" lon="6.03038">
        <ele>239</ele>
        <time>2000-01-01T03:14:18.000Z</time>
      </trkpt>
      <trkpt lat="47.2299" lon="6.03065">
        <ele>243</ele>
        <time>2000-01-01T03:14:28.000Z</time>
      </trkpt>
      <trkpt lat="47.23004" lon="6.03108">
        <ele>244</ele>
        <time>2000-01-01T03:14:38.000Z</time>
      </trkpt>
      <trkpt lat="47.23013" lon="6.03153">
        <ele>245</ele>
        <time>2000-01-01T03:14:48.000Z</time>
      </trkpt>
      <trkpt lat="47.23059" lon="6.033">
        <ele>246</ele>
        <time>2000-01-01T03:14:58.000Z</time>
      </trkpt>
      <trkpt lat="47.23084" lon="6.03375">
        <ele>246</ele>
        <time>2000-01-01T03:15:08.000Z</time>
      </trkpt>
      <trkpt lat="47.23095" lon="6.0341">
        <ele>246</ele>
        <time>2000-01-01T03:15:18.000Z</time>
      </trkpt>
      <trkpt lat="47.2311" lon="6.03461">
        <ele>246</ele>
        <time>2000-01-01T03:15:28.000Z</time>
      </trkpt>
      <trkpt lat="47.23146" lon="6.03594">
        <ele>246</ele>
        <time>2000-01-01T03:15:38.000Z</time>
      </trkpt>
      <trkpt lat="47.23126" lon="6.03637">
        <ele>246</ele>
        <time>2000-01-01T03:15:48.000Z</time>
      </trkpt>
      <trkpt lat="47.23117" lon="6.03633">
        <ele>247.6</ele>
        <time>2000-01-01T03:15:58.000Z</time>
      </trkpt>
      <trkpt lat="47.23141" lon="6.03581">
        <ele>247</ele>
        <time>2000-01-01T03:16:08.000Z</time>
      </trkpt>
      <trkpt lat="47.23168" lon="6.03571">
        <ele>247</ele>
        <time>2000-01-01T03:16:18.000Z</time>
      </trkpt>
      <trkpt lat="47.23198" lon="6.03581">
        <ele>247</ele>
        <time>2000-01-01T03:16:28.000Z</time>
      </trkpt>
      <trkpt lat="47.23237" lon="6.03581">
        <ele>247</ele>
        <time>2000-01-01T03:16:38.000Z</time>
      </trkpt>
      <trkpt lat="47.23266" lon="6.03572">
        <ele>246</ele>
        <time>2000-01-01T03:16:48.000Z</time>
      </trkpt>
      <trkpt lat="47.2329" lon="6.03563">
        <ele>246</ele>
        <time>2000-01-01T03:16:58.000Z</time>
      </trkpt>
      <trkpt lat="47.2332" lon="6.03553">
        <ele>246</ele>
        <time>2000-01-01T03:17:08.000Z</time>
      </trkpt>
      <trkpt lat="47.23348" lon="6.03538">
        <ele>246</ele>
        <time>2000-01-01T03:17:18.000Z</time>
      </trkpt>
      <trkpt lat="47.23397" lon="6.0351">
        <ele>246</ele>
        <time>2000-01-01T03:17:28.000Z</time>
      </trkpt>
      <trkpt lat="47.23451" lon="6.03482">
        <ele>246</ele>
        <time>2000-01-01T03:17:38.000Z</time>
      </trkpt>
      <trkpt lat="47.23452" lon="6.03503">
        <ele>243</ele>
        <time>2000-01-01T03:17:48.000Z</time>
      </trkpt>
      <trkpt lat="47.23437" lon="6.03536">
        <ele>241</ele>
        <time>2000-01-01T03:17:58.000Z</time>
      </trkpt>
      <trkpt lat="47.23419" lon="6.03573">
        <ele>241</ele>
        <time>2000-01-01T03:18:08.000Z</time>
      </trkpt>
      <trkpt lat="47.23402" lon="6.03616">
        <ele>241</ele>
        <time>2000-01-01T03:18:18.000Z</time>
      </trkpt>
      <trkpt lat="47.23385" lon="6.03657">
        <ele>244</ele>
        <time>2000-01-01T03:18:28.000Z</time>
      </trkpt>
      <trkpt lat="47.23366" lon="6.03678">
        <ele>246</ele>
        <time>2000-01-01T03:18:38.000Z</time>
      </trkpt>
      <trkpt lat="47.23345" lon="6.037">
        <ele>246</ele>
        <time>2000-01-01T03:18:48.000Z</time>
      </trkpt>
      <trkpt lat="47.23323" lon="6.03716">
        <ele>246</ele>
        <time>2000-01-01T03:18:58.000Z</time>
      </trkpt>
      <trkpt lat="47.23219" lon="6.03762">
        <ele>246</ele>
        <time>2000-01-01T03:19:08.000Z</time>
      </trkpt>
      <trkpt lat="47.23144" lon="6.03789">
        <ele>245</ele>
        <time>2000-01-01T03:19:18.000Z</time>
      </trkpt>
      <trkpt lat="47.23107" lon="6.03807">
        <ele>245</ele>
        <time>2000-01-01T03:19:28.000Z</time>
      </trkpt>
      <trkpt lat="47.23085" lon="6.03821">
        <ele>246</ele>
        <time>2000-01-01T03:19:38.000Z</time>
      </trkpt>
      <trkpt lat="47.2307" lon="6.03818">
        <ele>244.1</ele>
        <time>2000-01-01T03:19:48.000Z</time>
      </trkpt>
      <trkpt lat="47.23055" lon="6.03838">
        <ele>246</ele>
        <time>2000-01-01T03:19:58.000Z</time>
      </trkpt>
      <trkpt lat="47.2303" lon="6.03855">
        <ele>246</ele>
        <time>2000-01-01T03:20:08.000Z</time>
      </trkpt>
      <trkpt lat="47.23005" lon="6.03871">
        <ele>245</ele>
        <time>2000-01-01T03:20:18.000Z</time>
      </trkpt>
      <trkpt lat="47.22981" lon="6.03891">
        <ele>245</ele>
        <time>2000-01-01T03:20:28.000Z</time>
      </trkpt>
      <trkpt lat="47.22935" lon="6.03936">
        <ele>245</ele>
        <time>2000-01-01T03:20:38.000Z</time>
      </trkpt>
      <trkpt lat="47.22911" lon="6.03949">
        <ele>244</ele>
        <time>2000-01-01T03:20:48.000Z</time>
      </trkpt>
      <trkpt lat="47.22887" lon="6.03959">
        <ele>241</ele>
        <time>2000-01-01T03:20:58.000Z</time>
      </trkpt>
      <trkpt lat="47.22862" lon="6.03968">
        <ele>241</ele>
        <time>2000-01-01T03:21:08.000Z</time>
      </trkpt>
      <trkpt lat="47.2284" lon="6.03988">
        <ele>241</ele>
        <time>2000-01-01T03:21:18.000Z</time>
      </trkpt>
      <trkpt lat="47.22822" lon="6.04008">
        <ele>241</ele>
        <time>2000-01-01T03:21:28.000Z</time>
      </trkpt>
      <trkpt lat="47.22807" lon="6.04035">
        <ele>241</ele>
        <time>2000-01-01T03:21:38.000Z</time>
      </trkpt>
      <trkpt lat="47.22788" lon="6.04055">
        <ele>241</ele>
        <time>2000-01-01T03:21:48.000Z</time>
      </trkpt>
      <trkpt lat="47.22769" lon="6.04086">
        <ele>241</ele>
        <time>2000-01-01T03:21:58.000Z</time>
      </trkpt>
      <trkpt lat="47.22752" lon="6.04118">
        <ele>241</ele>
        <time>2000-01-01T03:22:08.000Z</time>
      </trkpt>
      <trkpt lat="47.22741" lon="6.0416">
        <ele>241</ele>
        <time>2000-01-01T03:22:18.000Z</time>
      </trkpt>
      <trkpt lat="47.22729" lon="6.04194">
        <ele>241</ele>
        <time>2000-01-01T03:22:28.000Z</time>
      </trkpt>
      <trkpt lat="47.22741" lon="6.04234">
        <ele>246</ele>
        <time>2000-01-01T03:22:38.000Z</time>
      </trkpt>
      <trkpt lat="47.22768" lon="6.04273">
        <ele>246</ele>
        <time>2000-01-01T03:22:48.000Z</time>
      </trkpt>
      <trkpt lat="47.22769" lon="6.04273">
        <ele>246</ele>
        <time>2000-01-01T03:22:58.000Z</time>
      </trkpt>
    </trkseg>
  </trk>
</gpx>